Time;durP1;ratioP1;P1;durP2;ratioP2;P2;SDS_P1;SDS_P2;PMS_P1;PMS_P2;Temp;Humidity;BMP_temperature;BMP_pressure;BME280_temperature;BME280_humidity;BME280_pressure;Samples;Min_cycle;Max_cycle;Signal;HPM_P1;HPM_P2
2021/08/09 00:02:14;;;;;;;2.60;1.10;;;21.90;99.90;;;;;;5030823;28;20057;-65
2021/08/09 00:04:40;;;;;;;2.55;0.98;;;21.90;99.90;;;;;;5031243;28;20025;-65
2021/08/09 00:07:07;;;;;;;3.03;1.30;;;21.90;99.90;;;;;;5031226;28;20053;-65
2021/08/09 00:09:33;;;;;;;3.13;1.27;;;21.80;99.90;;;;;;5030268;28;20389;-65
2021/08/09 00:12:00;;;;;;;3.08;1.20;;;21.90;99.90;;;;;;5005166;28;20026;-68
2021/08/09 00:14:26;;;;;;;3.38;1.10;;;21.90;99.90;;;;;;5012177;28;20061;-65
2021/08/09 00:16:51;;;;;;;3.92;1.00;;;21.90;99.90;;;;;;5017684;28;20470;-66
2021/08/09 00:19:17;;;;;;;2.80;1.05;;;21.90;99.90;;;;;;5030944;28;20029;-65
2021/08/09 00:21:42;;;;;;;2.28;1.15;;;21.90;99.90;;;;;;5030813;28;20029;-65
2021/08/09 00:24:08;;;;;;;2.33;0.93;;;21.90;99.90;;;;;;5031062;28;20040;-65
2021/08/09 00:26:34;;;;;;;2.80;0.90;;;21.90;99.90;;;;;;5030320;28;20029;-65
2021/08/09 00:29:00;;;;;;;2.17;1.17;;;21.90;99.90;;;;;;5031317;28;20533;-65
2021/08/09 00:31:26;;;;;;;2.80;1.10;;;21.80;99.90;;;;;;5013718;28;20033;-68
2021/08/09 00:33:51;;;;;;;2.88;1.15;;;21.80;99.90;;;;;;5030318;28;20040;-68
2021/08/09 00:36:17;;;;;;;2.40;1.10;;;21.80;99.90;;;;;;5030876;28;20026;-64
2021/08/09 00:38:43;;;;;;;1.90;0.85;;;21.80;99.90;;;;;;5030380;28;20031;-69
2021/08/09 00:41:09;;;;;;;2.53;1.10;;;21.80;99.90;;;;;;5030473;28;20022;-69
2021/08/09 00:43:35;;;;;;;2.13;1.02;;;21.80;99.90;;;;;;4996154;28;20033;-67
2021/08/09 00:46:03;;;;;;;2.78;1.20;;;21.80;99.90;;;;;;5011736;28;20025;-70
2021/08/09 00:48:28;;;;;;;3.33;1.20;;;21.80;99.90;;;;;;5032277;28;20386;-68
2021/08/09 00:50:54;;;;;;;3.00;1.30;;;21.80;99.90;;;;;;5034345;28;20021;-69
2021/08/09 00:53:21;;;;;;;1.63;0.88;;;21.80;99.90;;;;;;5034764;28;20041;-66
2021/08/09 00:55:47;;;;;;;3.47;1.10;;;21.80;99.90;;;;;;5034436;28;20024;-66
2021/08/09 00:58:13;;;;;;;3.42;1.17;;;21.80;99.90;;;;;;5034820;28;20044;-65
2021/08/09 01:00:38;;;;;;;3.38;1.27;;;21.80;99.90;;;;;;5034133;28;20021;-65
2021/08/09 01:03:05;;;;;;;2.60;1.00;;;21.80;99.90;;;;;;5016130;28;20404;-65
2021/08/09 01:05:31;;;;;;;2.40;1.05;;;21.80;99.90;;;;;;5034727;28;20029;-66
2021/08/09 01:07:56;;;;;;;4.32;1.20;;;21.80;99.90;;;;;;5034456;28;20456;-66
2021/08/09 01:10:29;;;;;;;1.92;1.10;;;21.80;99.90;;;;;;5034105;28;20056;-66
2021/08/09 01:13:09;;;;;;;2.50;1.08;;;21.80;99.90;;;;;;5026222;28;20017;-66
2021/08/09 01:15:38;;;;;;;2.60;1.25;;;21.80;99.90;;;;;;5014755;28;20109;-66
2021/08/09 01:18:05;;;;;;;4.05;1.15;;;21.80;99.90;;;;;;5033800;28;20040;-65
2021/08/09 01:20:53;;;;;;;2.65;1.13;;;21.80;99.90;;;;;;5034733;28;20358;-65
2021/08/09 01:23:41;;;;;;;1.65;1.00;;;21.80;99.90;;;;;;5034477;28;20433;-65
2021/08/09 01:26:46;;;;;;;1.63;0.90;;;21.80;99.90;;;;;;5034006;28;20068;-65
2021/08/09 01:29:17;;;;;;;;;;;21.70;99.90;;;;;;5020842;28;20030;-66
2021/08/09 01:31:49;;;;;;;1.75;0.98;;;21.80;99.90;;;;;;5033730;28;19909;-66
2021/08/09 01:34:17;;;;;;;1.88;0.80;;;21.80;99.90;;;;;;5034183;28;20029;-69
2021/08/09 01:36:55;;;;;;;2.55;0.80;;;21.80;99.90;;;;;;5032982;28;20033;-65
2021/08/09 01:39:21;;;;;;;2.17;1.00;;;21.80;99.90;;;;;;5030251;28;20025;-67
2021/08/09 01:41:52;;;;;;;1.63;0.80;;;21.80;99.90;;;;;;5033497;28;20033;-66
2021/08/09 01:44:19;;;;;;;2.97;0.82;;;21.70;99.90;;;;;;5024185;28;20097;-65
2021/08/09 01:46:46;;;;;;;3.15;1.10;;;21.80;99.90;;;;;;5018943;28;20045;-66
2021/08/09 01:49:13;;;;;;;2.17;0.90;;;21.70;99.90;;;;;;5033370;28;20056;-68
2021/08/09 01:51:39;;;;;;;2.22;1.00;;;21.70;99.90;;;;;;5033384;28;20044;-65
2021/08/09 01:54:07;;;;;;;2.40;0.85;;;21.80;99.90;;;;;;5033971;28;20032;-66
2021/08/09 01:56:33;;;;;;;2.13;1.00;;;21.70;99.90;;;;;;5033282;28;20051;-66
2021/08/09 01:58:59;;;;;;;1.77;1.08;;;21.70;99.90;;;;;;5033171;28;20068;-65
2021/08/09 02:01:26;;;;;;;1.85;0.98;;;21.70;99.90;;;;;;5032758;28;20049;-65
2021/08/09 02:03:52;;;;;;;3.60;1.10;;;21.70;99.90;;;;;;5033178;28;20034;-66
2021/08/09 02:06:19;;;;;;;1.98;0.80;;;21.70;99.90;;;;;;5033416;28;20036;-66
2021/08/09 02:08:44;;;;;;;3.30;0.90;;;21.70;99.90;;;;;;5032786;28;20527;-67
2021/08/09 02:11:22;;;;;;;1.73;0.90;;;21.70;99.90;;;;;;5032852;28;20033;-65
2021/08/09 02:13:57;;;;;;;2.45;0.80;;;21.70;99.90;;;;;;5024343;28;20109;-67
2021/08/09 02:16:42;;;;;;;2.53;0.90;;;21.70;99.90;;;;;;5014916;28;20040;-65
2021/08/09 02:19:21;;;;;;;4.25;1.13;;;21.70;99.90;;;;;;5032743;28;20440;-65
2021/08/09 02:22:11;;;;;;;3.33;1.00;;;21.70;99.90;;;;;;5033191;28;20068;-65
2021/08/09 02:24:49;;;;;;;1.90;0.85;;;21.70;99.90;;;;;;5032017;28;20045;-66
2021/08/09 02:27:20;;;;;;;1.80;0.75;;;21.70;99.90;;;;;;5032936;28;20485;-67
2021/08/09 02:29:51;;;;;;;1.85;0.75;;;21.70;99.90;;;;;;5032825;28;20384;-66
2021/08/09 02:32:21;;;;;;;2.40;0.88;;;21.70;99.90;;;;;;5032640;28;20523;-66
2021/08/09 02:34:50;;;;;;;2.75;1.25;;;21.70;99.90;;;;;;5032619;28;20109;-65
2021/08/09 02:37:15;;;;;;;2.80;0.90;;;21.70;99.90;;;;;;5032036;28;20482;-66
2021/08/09 02:39:42;;;;;;;2.75;0.98;;;21.70;99.90;;;;;;5032089;28;20077;-65
2021/08/09 02:42:09;;;;;;;3.03;1.00;;;21.70;99.90;;;;;;5032311;28;20021;-66
2021/08/09 02:44:37;;;;;;;3.70;1.10;;;21.70;99.90;;;;;;5032595;28;20437;-66
2021/08/09 02:47:05;;;;;;;1.95;0.90;;;21.70;99.90;;;;;;5032926;28;20025;-66
2021/08/09 02:49:31;;;;;;;2.33;0.80;;;21.70;99.90;;;;;;5032922;28;20481;-66
2021/08/09 02:51:57;;;;;;;1.38;1.00;;;21.60;99.90;;;;;;5032676;28;20030;-66
2021/08/09 02:54:23;;;;;;;2.42;1.10;;;21.70;99.90;;;;;;5032686;28;20367;-66
2021/08/09 02:56:50;;;;;;;3.45;1.00;;;21.60;99.90;;;;;;5031730;28;20026;-68
2021/08/09 02:59:16;;;;;;;2.67;0.93;;;21.60;99.90;;;;;;5014963;28;20060;-67
2021/08/09 03:01:42;;;;;;;2.08;0.90;;;21.70;99.90;;;;;;5031907;28;20050;-68
2021/08/09 03:04:13;;;;;;;1.77;0.93;;;21.70;99.90;;;;;;5032456;28;20032;-67
2021/08/09 03:06:39;;;;;;;1.98;1.08;;;21.70;99.90;;;;;;5031653;28;20025;-67
2021/08/09 03:09:06;;;;;;;1.92;0.80;;;21.70;99.90;;;;;;5032156;28;20056;-67
2021/08/09 03:11:34;;;;;;;1.95;0.98;;;21.70;99.90;;;;;;5031326;28;20030;-66
2021/08/09 03:14:00;;;;;;;1.42;0.85;;;21.70;99.90;;;;;;5029135;28;20375;-66
2021/08/09 03:16:26;;;;;;;2.17;0.80;;;21.60;99.90;;;;;;5012791;28;20040;-65
2021/08/09 03:18:51;;;;;;;2.08;1.08;;;21.60;99.90;;;;;;5022937;28;20026;-66
2021/08/09 03:21:17;;;;;;;2.03;0.90;;;21.60;99.90;;;;;;5031556;28;20030;-67
2021/08/09 03:23:43;;;;;;;2.38;0.88;;;21.60;99.90;;;;;;5031973;28;20037;-67
2021/08/09 03:26:09;;;;;;;1.20;0.70;;;21.60;99.90;;;;;;5031728;28;20037;-68
2021/08/09 03:28:35;;;;;;;2.13;0.85;;;21.60;99.90;;;;;;5031472;28;20497;-66
2021/08/09 03:31:03;;;;;;;2.33;0.80;;;21.60;99.90;;;;;;5031741;28;20040;-67
2021/08/09 03:33:29;;;;;;;1.70;0.82;;;21.60;99.90;;;;;;5032465;28;20039;-67
2021/08/09 03:35:55;;;;;;;1.20;0.90;;;21.60;99.90;;;;;;5031386;28;20026;-66
2021/08/09 03:38:20;;;;;;;1.83;0.77;;;21.60;99.90;;;;;;5030685;28;20041;-69
2021/08/09 03:40:46;;;;;;;2.90;0.95;;;21.60;99.90;;;;;;5030773;28;20049;-68
2021/08/09 03:43:12;;;;;;;1.40;0.77;;;21.60;99.90;;;;;;5031536;28;20029;-68
2021/08/09 03:45:37;;;;;;;1.55;0.90;;;21.60;99.90;;;;;;5015412;28;20045;-70
2021/08/09 03:48:06;;;;;;;2.28;1.25;;;21.60;99.90;;;;;;5012027;28;20034;-66
2021/08/09 03:50:32;;;;;;;1.83;0.90;;;21.50;99.90;;;;;;5019050;28;20374;-66
2021/08/09 03:52:58;;;;;;;3.97;0.88;;;21.50;99.90;;;;;;5031735;28;20037;-67
2021/08/09 03:55:23;;;;;;;2.70;0.90;;;21.60;99.90;;;;;;5031819;28;20025;-64
2021/08/09 03:57:49;;;;;;;3.72;0.90;;;21.50;99.90;;;;;;5030500;28;20087;-65
2021/08/09 04:00:15;;;;;;;2.03;0.80;;;21.60;99.90;;;;;;5031628;28;20032;-64
2021/08/09 04:02:40;;;;;;;1.15;0.70;;;21.50;99.90;;;;;;5031367;28;20052;-65
2021/08/09 04:05:10;;;;;;;2.22;0.80;;;21.50;99.90;;;;;;5031499;28;20030;-64
2021/08/09 04:07:37;;;;;;;2.25;1.00;;;21.50;99.90;;;;;;5031032;28;20104;-63
2021/08/09 04:10:05;;;;;;;2.10;1.02;;;21.50;99.90;;;;;;5031274;28;20037;-66
2021/08/09 04:12:30;;;;;;;1.60;0.80;;;21.50;99.90;;;;;;5031096;28;20060;-65
2021/08/09 04:14:56;;;;;;;1.23;0.65;;;21.50;99.90;;;;;;5021394;28;20045;-64
2021/08/09 04:17:22;;;;;;;1.35;0.90;;;21.50;99.90;;;;;;5016526;28;20041;-64
2021/08/09 04:19:47;;;;;;;1.60;1.02;;;21.40;99.90;;;;;;5030636;28;20022;-64
2021/08/09 04:22:13;;;;;;;2.05;0.80;;;21.40;99.90;;;;;;5031065;28;20089;-64
2021/08/09 04:24:39;;;;;;;5.35;1.13;;;21.50;99.90;;;;;;5034669;28;20105;-64
2021/08/09 04:27:04;;;;;;;2.05;0.90;;;21.40;99.90;;;;;;5035130;28;20040;-63
2021/08/09 04:29:30;;;;;;;2.00;0.80;;;21.50;99.90;;;;;;5035939;28;20030;-64
2021/08/09 04:31:56;;;;;;;1.67;0.60;;;21.50;99.90;;;;;;5035631;28;20383;-64
2021/08/09 04:34:21;;;;;;;3.42;0.88;;;21.50;99.90;;;;;;5035474;28;20429;-65
2021/08/09 04:36:47;;;;;;;0.98;0.55;;;21.50;99.90;;;;;;5033912;28;20021;-67
2021/08/09 04:39:13;;;;;;;1.80;0.80;;;21.50;99.90;;;;;;5035069;28;20029;-66
2021/08/09 04:41:38;;;;;;;7.90;1.15;;;21.50;99.90;;;;;;5034788;28;20029;-70
2021/08/09 04:44:05;;;;;;;9.50;1.10;;;21.50;99.90;;;;;;5031476;28;20030;-67
2021/08/09 04:46:31;;;;;;;3.10;0.90;;;21.60;99.90;;;;;;5015262;28;20389;-66
2021/08/09 04:48:57;;;;;;;1.88;0.85;;;21.50;99.90;;;;;;5033179;28;20112;-67
2021/08/09 04:51:22;;;;;;;3.00;1.05;;;21.50;99.90;;;;;;5034817;28;20029;-66
2021/08/09 04:53:48;;;;;;;2.92;0.68;;;21.40;99.90;;;;;;5034579;28;20031;-68
2021/08/09 04:56:14;;;;;;;1.45;0.80;;;21.40;99.90;;;;;;5034471;28;20033;-66
2021/08/09 04:58:39;;;;;;;3.88;1.15;;;21.40;99.90;;;;;;5034284;28;20087;-68
2021/08/09 05:01:05;;;;;;;3.47;0.85;;;21.40;99.90;;;;;;5034356;28;20029;-67
2021/08/09 05:03:39;;;;;;;2.83;0.85;;;21.40;99.90;;;;;;5034759;28;20026;-65
2021/08/09 05:06:08;;;;;;;1.20;0.55;;;21.40;99.90;;;;;;5034578;28;20068;-67
2021/08/09 05:08:33;;;;;;;1.55;0.93;;;21.40;99.90;;;;;;5033905;28;20112;-68
2021/08/09 05:10:59;;;;;;;1.60;0.90;;;21.40;99.90;;;;;;5034678;28;20108;-68
2021/08/09 05:13:25;;;;;;;2.13;0.93;;;21.40;99.90;;;;;;5034192;28;20029;-68
2021/08/09 05:15:50;;;;;;;1.90;0.90;;;21.40;99.90;;;;;;5016813;28;20520;-69
2021/08/09 05:18:16;;;;;;;1.98;0.80;;;21.40;99.90;;;;;;5026205;28;20478;-69
2021/08/09 05:20:42;;;;;;;1.60;0.70;;;21.40;99.90;;;;;;5034301;28;20025;-67
2021/08/09 05:23:07;;;;;;;1.83;0.90;;;21.50;99.90;;;;;;5034249;28;20103;-65
2021/08/09 05:25:34;;;;;;;1.50;0.77;;;21.50;99.90;;;;;;5033764;28;20366;-65
2021/08/09 05:28:00;;;;;;;2.00;0.70;;;21.50;99.90;;;;;;5034009;28;20503;-66
2021/08/09 05:30:26;;;;;;;2.22;0.98;;;21.50;99.90;;;;;;5034423;28;20033;-66
2021/08/09 05:32:51;;;;;;;1.70;0.80;;;21.40;99.90;;;;;;5034072;28;20165;-66
2021/08/09 05:35:17;;;;;;;0.80;0.60;;;21.50;99.90;;;;;;5032929;28;20469;-68
2021/08/09 05:37:43;;;;;;;1.70;0.88;;;21.40;99.90;;;;;;5032100;28;20045;-66
2021/08/09 05:40:10;;;;;;;1.98;1.00;;;21.50;99.90;;;;;;5033664;28;20033;-63
2021/08/09 05:42:36;;;;;;;1.63;0.80;;;21.40;99.90;;;;;;5033057;28;20473;-67
2021/08/09 05:45:01;;;;;;;1.48;0.93;;;21.40;99.90;;;;;;5023342;28;20037;-63
2021/08/09 05:47:27;;;;;;;1.85;0.93;;;21.40;99.90;;;;;;5018679;28;20469;-67
2021/08/09 05:49:54;;;;;;;1.60;0.88;;;21.40;99.90;;;;;;5033295;28;20040;-65
2021/08/09 05:52:21;;;;;;;2.53;1.02;;;21.30;99.90;;;;;;5033866;28;20028;-63
2021/08/09 05:54:48;;;;;;;1.50;0.73;;;21.30;99.90;;;;;;5033345;28;20416;-64
2021/08/09 05:57:14;;;;;;;2.08;0.80;;;21.30;99.90;;;;;;5033312;28;20167;-66
2021/08/09 05:59:39;;;;;;;0.88;0.60;;;21.30;99.90;;;;;;5032787;28;20105;-64
2021/08/09 06:02:05;;;;;;;1.25;0.63;;;21.40;99.90;;;;;;5029106;28;20451;-64
2021/08/09 06:04:34;;;;;;;1.58;0.80;;;21.40;99.90;;;;;;5023221;28;20018;-64
2021/08/09 06:07:00;;;;;;;1.35;0.68;;;21.40;99.90;;;;;;5024045;28;20030;-65
2021/08/09 06:09:25;;;;;;;1.80;0.60;;;21.40;99.90;;;;;;5022427;28;20096;-66
2021/08/09 06:11:51;;;;;;;2.50;0.80;;;21.40;99.90;;;;;;5021427;28;20033;-67
2021/08/09 06:14:16;;;;;;;3.33;0.85;;;21.40;99.90;;;;;;5022090;28;20033;-64
2021/08/09 06:16:42;;;;;;;2.80;0.90;;;21.30;99.90;;;;;;5023701;28;20026;-65
2021/08/09 06:19:08;;;;;;;1.33;0.82;;;21.20;99.90;;;;;;5019992;28;20029;-65
2021/08/09 06:21:33;;;;;;;3.88;0.80;;;21.10;99.90;;;;;;5023316;28;20026;-67
2021/08/09 06:23:59;;;;;;;3.00;1.10;;;21.00;99.90;;;;;;5029793;28;20029;-68
2021/08/09 06:26:25;;;;;;;4.13;1.00;;;21.10;99.90;;;;;;5032805;28;20106;-68
2021/08/09 06:28:50;;;;;;;2.85;0.88;;;21.00;99.90;;;;;;5014571;28;20029;-70
2021/08/09 06:31:16;;;;;;;5.68;1.25;;;21.30;99.90;;;;;;5033008;28;20025;-67
2021/08/09 06:33:42;;;;;;;3.05;1.40;;;21.40;99.90;;;;;;5033011;28;20017;-69
2021/08/09 06:36:07;;;;;;;4.40;1.00;;;21.40;99.90;;;;;;5033048;28;20025;-67
2021/08/09 06:38:33;;;;;;;3.60;1.08;;;21.30;99.90;;;;;;5032178;28;20111;-67
2021/08/09 06:40:58;;;;;;;3.30;1.05;;;21.30;99.90;;;;;;5032962;28;20029;-67
2021/08/09 06:43:24;;;;;;;4.45;1.30;;;21.20;99.90;;;;;;5014552;28;20030;-67
2021/08/09 06:45:50;;;;;;;4.43;1.35;;;21.10;99.90;;;;;;5024610;28;20040;-68
2021/08/09 06:48:15;;;;;;;4.25;1.48;;;21.10;99.90;;;;;;5032119;28;20036;-68
2021/08/09 06:50:42;;;;;;;5.22;1.17;;;21.10;99.90;;;;;;5032365;28;20025;-66
2021/08/09 06:53:08;;;;;;;4.10;1.23;;;21.00;99.90;;;;;;5032706;28;20048;-70
2021/08/09 06:55:34;;;;;;;4.13;1.30;;;21.00;99.90;;;;;;5032595;28;20037;-66
2021/08/09 06:58:00;;;;;;;5.47;1.40;;;21.00;99.90;;;;;;5032134;28;20120;-67
2021/08/09 07:00:25;;;;;;;3.80;1.50;;;21.00;99.90;;;;;;5032649;28;20105;-68
2021/08/09 07:02:51;;;;;;;4.30;1.77;;;21.00;99.90;;;;;;5032304;28;20035;-66
2021/08/09 07:05:16;;;;;;;4.18;1.30;;;21.00;99.90;;;;;;5032635;28;20030;-67
2021/08/09 07:07:44;;;;;;;5.55;1.10;;;20.90;99.90;;;;;;5031485;28;20029;-66
2021/08/09 07:10:10;;;;;;;5.18;1.55;;;20.90;99.90;;;;;;5032105;28;20025;-68
2021/08/09 07:12:35;;;;;;;3.42;0.80;;;21.00;99.90;;;;;;5032031;28;20022;-67
2021/08/09 07:15:01;;;;;;;3.47;1.17;;;20.90;99.90;;;;;;5032362;28;20075;-66
2021/08/09 07:17:26;;;;;;;3.25;0.93;;;21.00;99.90;;;;;;5032611;28;20580;-66
2021/08/09 07:19:52;;;;;;;4.45;1.30;;;21.00;99.90;;;;;;5028971;28;20092;-67
2021/08/09 07:22:18;;;;;;;5.88;1.38;;;20.90;99.90;;;;;;5029824;28;20469;-70
2021/08/09 07:24:43;;;;;;;7.18;1.63;;;20.80;99.90;;;;;;5031664;28;20021;-70
2021/08/09 07:27:09;;;;;;;6.00;1.63;;;20.70;99.90;;;;;;5030987;28;20025;-70
2021/08/09 07:29:34;;;;;;;3.63;1.17;;;20.70;99.90;;;;;;5031360;28;20025;-70
2021/08/09 07:32:00;;;;;;;4.28;1.25;;;20.80;99.90;;;;;;5031522;28;20025;-70
2021/08/09 07:34:26;;;;;;;3.53;1.23;;;20.80;99.90;;;;;;5032152;28;20078;-72
2021/08/09 07:36:51;;;;;;;3.22;1.30;;;21.00;99.90;;;;;;5031526;28;20044;-71
2021/08/09 07:39:17;;;;;;;4.32;1.30;;;21.00;99.90;;;;;;5031630;28;20026;-71
2021/08/09 07:41:43;;;;;;;3.47;1.10;;;21.10;99.90;;;;;;5027291;28;20034;-72
2021/08/09 07:44:08;;;;;;;3.90;1.30;;;21.20;99.90;;;;;;5031831;28;20030;-71
2021/08/09 07:46:34;;;;;;;5.43;1.20;;;21.20;99.90;;;;;;5031477;28;20080;-71
2021/08/09 07:49:00;;;;;;;2.85;1.00;;;21.30;99.90;;;;;;5031922;28;20084;-73
2021/08/09 07:51:25;;;;;;;5.40;1.10;;;21.30;99.90;;;;;;5031057;28;20049;-71
2021/08/09 07:53:51;;;;;;;2.83;1.23;;;21.30;99.90;;;;;;5031525;28;20097;-71
2021/08/09 07:56:17;;;;;;;3.38;0.93;;;21.30;99.90;;;;;;5031606;28;20481;-71
2021/08/09 07:58:42;;;;;;;3.17;1.00;;;21.40;99.90;;;;;;5030066;28;20104;-72
2021/08/09 08:01:08;;;;;;;3.40;1.33;;;21.40;99.90;;;;;;5031628;28;20053;-71
2021/08/09 08:03:34;;;;;;;3.65;1.30;;;21.50;99.90;;;;;;5013525;28;20116;-71
2021/08/09 08:05:59;;;;;;;2.10;1.08;;;21.50;99.90;;;;;;5031796;28;20033;-70
2021/08/09 08:08:25;;;;;;;3.80;1.10;;;21.50;99.90;;;;;;5031198;28;20021;-70
2021/08/09 08:10:50;;;;;;;3.30;0.93;;;21.60;99.90;;;;;;5031285;28;20060;-71
2021/08/09 08:13:16;;;;;;;3.30;1.00;;;21.60;99.90;;;;;;5031488;28;20040;-70
2021/08/09 08:15:42;;;;;;;2.03;0.98;;;21.60;99.90;;;;;;5031167;28;20095;-70
2021/08/09 08:18:07;;;;;;;3.33;1.00;;;21.70;99.90;;;;;;5031379;28;20504;-70
2021/08/09 08:20:33;;;;;;;3.80;1.17;;;21.60;99.90;;;;;;5030805;28;20022;-70
2021/08/09 08:23:02;;;;;;;2.65;1.15;;;21.60;99.90;;;;;;5030367;28;20029;-68
2021/08/09 08:25:28;;;;;;;3.42;0.90;;;21.70;99.90;;;;;;5009578;28;20497;-69
2021/08/09 08:27:54;;;;;;;2.47;1.08;;;21.50;99.90;;;;;;5030999;28;20057;-68
2021/08/09 08:30:20;;;;;;;3.92;1.10;;;21.50;99.90;;;;;;5030822;28;20057;-72
2021/08/09 08:32:46;;;;;;;2.17;0.82;;;21.50;99.90;;;;;;5030931;28;20047;-69
2021/08/09 08:35:12;;;;;;;3.53;1.23;;;21.50;99.90;;;;;;5021501;28;20030;-70
2021/08/09 08:37:37;;;;;;;3.95;1.13;;;21.60;99.90;;;;;;5013598;28;20044;-69
2021/08/09 08:40:05;;;;;;;4.57;1.35;;;21.60;99.90;;;;;;5024456;28;20025;-72
2021/08/09 08:42:30;;;;;;;3.83;1.00;;;21.60;99.90;;;;;;5031122;28;20030;-71
2021/08/09 08:44:56;;;;;;;1.60;0.90;;;21.50;99.90;;;;;;5031404;28;20024;-71
2021/08/09 08:47:23;;;;;;;3.65;1.30;;;21.60;99.90;;;;;;5020093;28;20093;-72
2021/08/09 08:49:49;;;;;;;2.80;1.10;;;21.60;99.90;;;;;;5023660;28;20497;-68
2021/08/09 08:52:15;;;;;;;2.70;0.90;;;21.60;99.90;;;;;;5031120;28;20032;-71
2021/08/09 08:54:41;;;;;;;3.42;1.10;;;21.70;99.90;;;;;;5032188;28;20021;-69
2021/08/09 08:57:20;;;;;;;4.07;1.30;;;21.80;99.90;;;;;;5016312;28;20057;-68
2021/08/09 08:59:46;;;;;;;3.72;1.10;;;21.80;99.90;;;;;;5015882;28;20048;-70
2021/08/09 09:02:35;;;;;;;2.92;1.30;;;21.90;99.90;;;;;;5011817;28;20041;-73
2021/08/09 09:05:19;;;;;;;2.97;1.05;;;22.00;99.90;;;;;;5029073;28;20040;-72
2021/08/09 09:07:52;;;;;;;2.10;1.02;;;22.10;99.90;;;;;;5030275;28;20386;-72
2021/08/09 09:10:26;;;;;;;4.28;0.98;;;22.20;99.90;;;;;;5028916;28;20025;-72
2021/08/09 09:13:10;;;;;;;;;;;22.30;99.90;;;;;;5029633;28;20026;-70
2021/08/09 09:16:04;;;;;;;2.33;0.97;;;22.30;99.90;;;;;;5025285;28;20380;-72
2021/08/09 09:18:46;;;;;;;;;;;22.30;99.90;;;;;;5024960;28;20029;-71
2021/08/09 09:21:25;;;;;;;3.05;0.90;;;22.40;99.90;;;;;;5034436;28;20353;-72
2021/08/09 09:23:55;;;;;;;2.05;1.10;;;22.40;99.90;;;;;;5034407;28;20104;-72
2021/08/09 09:26:25;;;;;;;2.40;1.02;;;22.50;99.90;;;;;;5040472;28;20020;-72
2021/08/09 09:28:52;;;;;;;4.45;1.20;;;22.50;99.90;;;;;;5054259;28;20025;-70
2021/08/09 09:31:29;;;;;;;2.70;0.98;;;22.60;99.90;;;;;;5044225;28;20026;-70
2021/08/09 09:33:55;;;;;;;2.17;1.05;;;22.60;99.90;;;;;;5034101;28;20457;-73
2021/08/09 09:36:22;;;;;;;1.80;1.00;;;22.60;99.90;;;;;;5034204;28;20141;-73
2021/08/09 09:38:54;;;;;;;3.47;1.25;;;22.60;99.90;;;;;;5032290;28;20037;-72
2021/08/09 09:41:21;;;;;;;4.28;1.13;;;22.70;99.90;;;;;;5033942;28;20021;-71
2021/08/09 09:43:49;;;;;;;2.10;1.00;;;22.70;99.90;;;;;;5033061;28;20065;-70
2021/08/09 09:46:28;;;;;;;2.67;1.05;;;22.70;99.90;;;;;;5023835;28;20065;-70
2021/08/09 09:49:02;;;;;;;8.43;1.13;;;22.80;99.90;;;;;;5022487;28;20034;-71
2021/08/09 09:51:28;;;;;;;1.80;0.90;;;22.80;99.90;;;;;;5020779;28;20156;-69
2021/08/09 09:54:06;;;;;;;4.15;1.08;;;22.90;99.90;;;;;;5039982;28;20029;-69
2021/08/09 09:56:32;;;;;;;5.53;1.60;;;22.90;99.90;;;;;;5032921;28;20033;-69
2021/08/09 09:58:59;;;;;;;4.13;2.28;;;22.90;99.90;;;;;;5030356;28;20034;-71
2021/08/09 10:01:25;;;;;;;7.47;2.50;;;22.90;99.90;;;;;;5013963;28;20033;-71
2021/08/09 10:03:51;;;;;;;4.63;2.03;;;23.00;99.90;;;;;;5013757;28;20412;-70
2021/08/09 10:06:18;;;;;;;4.55;1.83;;;22.90;99.90;;;;;;5014051;28;20033;-71
2021/08/09 10:08:45;;;;;;;4.78;1.88;;;22.90;99.90;;;;;;5013405;28;20040;-70
2021/08/09 10:11:11;;;;;;;3.60;1.60;;;23.00;99.90;;;;;;5024019;28;20489;-71
2021/08/09 10:13:38;;;;;;;3.47;1.67;;;23.00;99.90;;;;;;5033203;28;20386;-70
2021/08/09 10:16:10;;;;;;;6.03;1.67;;;23.00;99.90;;;;;;5033713;28;20021;-70
2021/08/09 10:18:40;;;;;;;3.63;1.70;;;23.10;99.90;;;;;;5033075;28;20044;-68
2021/08/09 10:21:06;;;;;;;4.68;1.65;;;23.10;99.90;;;;;;5024040;28;20029;-74
2021/08/09 10:23:44;;;;;;;4.57;1.48;;;23.10;99.90;;;;;;5028661;28;20052;-75
2021/08/09 10:26:15;;;;;;;4.78;1.33;;;23.10;99.90;;;;;;5023519;28;20034;-73
2021/08/09 10:28:52;;;;;;;5.97;1.70;;;23.20;99.90;;;;;;5016247;28;20052;-74
2021/08/09 10:31:26;;;;;;;2.83;1.35;;;23.10;99.90;;;;;;5047129;28;20370;-75
2021/08/09 10:33:52;;;;;;;;;;;23.10;99.90;;;;;;5035273;28;20105;-75
2021/08/09 10:36:22;;;;;;;3.25;1.42;;;23.10;99.90;;;;;;5031126;28;20273;-75
2021/08/09 10:39:05;;;;;;;3.95;1.55;;;23.20;99.90;;;;;;5030043;28;20108;-75
2021/08/09 10:41:34;;;;;;;2.92;1.30;;;23.20;99.90;;;;;;5027555;28;20022;-74
2021/08/09 10:44:05;;;;;;;4.82;1.80;;;23.20;99.90;;;;;;5026888;28;20060;-75
2021/08/09 10:46:38;;;;;;;3.78;1.45;;;23.20;99.90;;;;;;5031664;28;20035;-73
2021/08/09 10:49:04;;;;;;;2.58;1.40;;;23.20;99.90;;;;;;5026395;28;20034;-74
2021/08/09 10:51:52;;;;;;;4.13;1.30;;;23.30;99.90;;;;;;5033167;28;20469;-75
2021/08/09 10:54:30;;;;;;;2.33;1.13;;;23.30;99.90;;;;;;5029017;28;20025;-74
2021/08/09 10:57:01;;;;;;;3.17;1.45;;;23.30;99.90;;;;;;5031214;28;20127;-75
2021/08/09 10:59:56;;;;;;;2.72;1.60;;;23.30;99.90;;;;;;5031555;28;20021;-74
2021/08/09 11:02:23;;;;;;;3.28;1.63;;;23.30;99.90;;;;;;5014376;28;20049;-75
2021/08/09 11:05:14;;;;;;;3.15;1.40;;;23.10;99.90;;;;;;5031887;28;20021;-75
2021/08/09 11:07:44;;;;;;;3.72;1.50;;;22.90;99.90;;;;;;5031808;28;20022;-73
2021/08/09 11:10:10;;;;;;;3.85;1.75;;;23.00;99.90;;;;;;5032000;28;20481;-80
2021/08/09 11:13:01;;;;;;;3.13;1.55;;;23.00;99.90;;;;;;5031424;28;20045;-82
2021/08/09 11:15:27;;;;;;;2.63;1.45;;;23.20;99.90;;;;;;5032026;28;20023;-73
2021/08/09 11:17:58;;;;;;;3.63;1.15;;;23.20;99.90;;;;;;5031612;28;20041;-76
2021/08/09 11:20:30;;;;;;;3.75;1.50;;;23.10;99.90;;;;;;5035133;28;20393;-79
2021/08/09 11:23:00;;;;;;;2.75;1.27;;;23.00;99.90;;;;;;5033308;28;20021;-80
2021/08/09 11:25:27;;;;;;;3.15;1.50;;;23.00;99.90;;;;;;5033925;28;20028;-79
2021/08/09 11:28:16;;;;;;;3.28;1.60;;;23.00;99.90;;;;;;5031016;28;20462;-78
2021/08/09 11:30:46;;;;;;;5.60;1.85;;;23.00;99.90;;;;;;5013206;28;20029;-81
2021/08/09 11:33:33;;;;;;;2.63;1.33;;;23.00;99.90;;;;;;5028335;28;20079;-78
2021/08/09 11:36:08;;;;;;;4.18;1.80;;;22.90;99.90;;;;;;5020485;28;20041;-80
2021/08/09 11:39:01;;;;;;;3.53;1.50;;;22.90;99.90;;;;;;5030874;28;20033;-80
2021/08/09 11:41:28;;;;;;;2.92;1.52;;;22.90;99.90;;;;;;5023620;28;20060;-76
2021/08/09 11:44:07;;;;;;;2.17;1.40;;;22.90;99.90;;;;;;5027783;28;20026;-74
2021/08/09 11:46:47;;;;;;;4.72;1.80;;;22.80;99.90;;;;;;5001381;28;20021;-78
2021/08/09 11:49:14;;;;;;;2.63;1.50;;;22.90;99.90;;;;;;5019383;28;20104;-74
2021/08/09 11:51:40;;;;;;;4.10;1.60;;;23.00;99.90;;;;;;5004865;28;20028;-80
2021/08/09 11:54:06;;;;;;;2.83;1.40;;;23.10;99.90;;;;;;5020764;28;20080;-76
2021/08/09 11:56:35;;;;;;;2.90;1.40;;;23.00;99.90;;;;;;5015785;28;20481;-69
2021/08/09 11:59:27;;;;;;;3.95;1.48;;;23.00;99.90;;;;;;5019704;28;20030;-64
2021/08/09 12:02:06;;;;;;;2.53;1.45;;;23.00;99.90;;;;;;5007372;28;20034;-77
2021/08/09 12:04:42;;;;;;;2.65;1.35;;;23.00;99.90;;;;;;5011919;28;20030;-74
2021/08/09 12:07:18;;;;;;;3.72;1.70;;;23.00;99.90;;;;;;5016056;28;20084;-75
2021/08/09 12:09:44;;;;;;;2.13;1.42;;;23.00;99.90;;;;;;5011376;28;20030;-75
2021/08/09 12:12:14;;;;;;;3.47;1.52;;;23.00;99.90;;;;;;5011664;28;20076;-80
2021/08/09 12:14:41;;;;;;;1.90;1.20;;;23.10;99.90;;;;;;5015126;28;20037;-74
2021/08/09 12:17:16;;;;;;;4.82;1.40;;;23.10;99.90;;;;;;5031330;28;20548;-76
2021/08/09 12:19:47;;;;;;;3.63;1.50;;;23.10;99.90;;;;;;5030795;28;20030;-73
2021/08/09 12:22:20;;;;;;;2.80;1.40;;;23.10;99.90;;;;;;5031232;28;20382;-77
2021/08/09 12:25:00;;;;;;;3.28;1.30;;;23.20;99.90;;;;;;5031210;28;20031;-76
2021/08/09 12:27:26;;;;;;;2.50;1.20;;;23.20;99.90;;;;;;5013785;28;20026;-75
2021/08/09 12:30:15;;;;;;;3.13;1.40;;;23.20;99.90;;;;;;5031086;28;20056;-80
2021/08/09 12:32:42;;;;;;;1.90;1.00;;;23.20;99.90;;;;;;5031545;28;20021;-78
2021/08/09 12:35:12;;;;;;;4.05;1.38;;;23.30;99.90;;;;;;5031343;28;20025;-79
2021/08/09 12:37:39;;;;;;;3.22;1.30;;;23.30;99.90;;;;;;5030967;28;20397;-73
2021/08/09 12:40:13;;;;;;;2.10;1.27;;;23.30;99.90;;;;;;5031305;28;20101;-80
2021/08/09 12:42:40;;;;;;;4.45;1.48;;;23.30;99.90;;;;;;5030883;28;20040;-76
2021/08/09 12:45:06;;;;;;;2.15;1.38;;;23.30;99.90;;;;;;5032312;28;20071;-80
2021/08/09 12:47:32;;;;;;;1.55;1.20;;;23.30;99.90;;;;;;5034568;28;20022;-79
2021/08/09 12:49:58;;;;;;;2.55;1.40;;;23.30;99.90;;;;;;5035456;28;20025;-78
2021/08/09 12:52:24;;;;;;;2.47;1.00;;;23.40;99.90;;;;;;5034980;28;20033;-79
2021/08/09 12:54:50;;;;;;;3.50;1.30;;;23.40;99.90;;;;;;5034389;28;20026;-77
2021/08/09 12:57:18;;;;;;;2.65;1.40;;;23.50;99.90;;;;;;5017203;28;20033;-80